Time;durP1;ratioP1;P1;durP2;ratioP2;P2;SDS_P1;SDS_P2;PMS_P1;PMS_P2;Temp;Humidity;BMP_temperature;BMP_pressure;BME280_temperature;BME280_humidity;BME280_pressure;Samples;Min_cycle;Max_cycle;Signal;HPM_P1;HPM_P2
2021/08/14 00:00:51;;;;;;;36.42;8.80;;;15.60;88.90;;;;;;5056894;28;20207;-85
2021/08/14 00:03:17;;;;;;;30.83;6.63;;;15.60;88.80;;;;;;5074611;28;20187;-85
2021/08/14 00:05:42;;;;;;;26.77;6.83;;;15.60;88.80;;;;;;5074628;28;20167;-85
2021/08/14 00:08:08;;;;;;;21.95;6.28;;;15.60;88.70;;;;;;5074587;28;20171;-85
2021/08/14 00:10:34;;;;;;;24.80;6.18;;;15.60;88.70;;;;;;5074447;28;20175;-85
2021/08/14 00:12:59;;;;;;;26.70;6.72;;;15.60;88.70;;;;;;5056464;28;20190;-84
2021/08/14 00:15:25;;;;;;;28.13;7.40;;;15.60;88.60;;;;;;5056503;28;20226;-84
2021/08/14 00:17:51;;;;;;;27.33;5.95;;;15.70;88.50;;;;;;5056638;28;20171;-83
2021/08/14 00:20:17;;;;;;;23.40;6.00;;;15.70;88.60;;;;;;5056274;28;20182;-84
2021/08/14 00:22:43;;;;;;;30.48;6.70;;;15.70;88.60;;;;;;5056327;28;20298;-84
2021/08/14 00:25:09;;;;;;;16.27;5.20;;;15.60;88.50;;;;;;5074315;28;20251;-84
2021/08/14 00:27:35;;;;;;;25.05;7.22;;;15.70;88.50;;;;;;5056126;28;20266;-84
2021/08/14 00:30:00;;;;;;;22.60;5.70;;;15.70;88.30;;;;;;5074129;28;20673;-84
2021/08/14 00:32:26;;;;;;;24.40;6.20;;;15.70;88.00;;;;;;5074207;28;20235;-84
2021/08/14 00:34:52;;;;;;;15.02;4.57;;;15.70;87.90;;;;;;5056013;28;20199;-84
2021/08/14 00:37:17;;;;;;;22.77;5.50;;;15.50;87.90;;;;;;5056099;28;20247;-85
2021/08/14 00:39:43;;;;;;;18.20;5.17;;;15.40;87.80;;;;;;5056013;28;20214;-84
2021/08/14 00:42:09;;;;;;;24.53;6.07;;;15.30;88.20;;;;;;5055906;28;20202;-85
2021/08/14 00:44:35;;;;;;;17.73;5.57;;;15.20;88.70;;;;;;5055962;28;20176;-84
2021/08/14 00:47:05;;;;;;;24.38;6.47;;;15.20;88.80;;;;;;5055877;28;20183;-85
2021/08/14 00:49:31;;;;;;;19.63;5.83;;;15.20;88.70;;;;;;5055959;28;20185;-85
2021/08/14 00:51:56;;;;;;;23.20;5.60;;;15.20;88.60;;;;;;5055764;28;20186;-84
2021/08/14 00:54:23;;;;;;;18.33;5.63;;;15.30;88.40;;;;;;5073656;28;20198;-85
2021/08/14 00:56:49;;;;;;;26.58;5.70;;;15.50;88.00;;;;;;5073601;28;20555;-85
2021/08/14 00:59:15;;;;;;;22.50;5.57;;;15.50;87.40;;;;;;5055671;28;20175;-85
2021/08/14 01:01:41;;;;;;;14.10;4.72;;;15.60;87.20;;;;;;5073511;28;20175;-84
2021/08/14 01:04:09;;;;;;;21.45;5.65;;;15.60;86.90;;;;;;5073233;28;20191;-84
2021/08/14 01:06:34;;;;;;;20.35;6.53;;;15.60;86.90;;;;;;5073546;28;20171;-84
2021/08/14 01:09:00;;;;;;;17.73;5.00;;;15.50;86.70;;;;;;5055521;28;20187;-84
2021/08/14 01:11:27;;;;;;;23.38;5.13;;;15.50;86.40;;;;;;5055491;28;20171;-84
2021/08/14 01:13:53;;;;;;;21.48;4.78;;;15.50;86.70;;;;;;5073271;28;20219;-84
2021/08/14 01:16:19;;;;;;;12.95;5.38;;;15.50;86.90;;;;;;5073384;28;20240;-85
2021/08/14 01:18:46;;;;;;;18.42;5.03;;;15.40;86.70;;;;;;5055416;28;20651;-84
2021/08/14 01:21:18;;;;;;;32.55;6.00;;;15.00;87.90;;;;;;5073597;28;20168;-85
2021/08/14 01:23:45;;;;;;;21.97;5.77;;;14.80;88.80;;;;;;5055125;28;20207;-84
2021/08/14 01:26:13;;;;;;;23.53;6.17;;;14.70;89.20;;;;;;5055331;28;20549;-84
2021/08/14 01:28:41;;;;;;;19.10;6.23;;;14.80;89.30;;;;;;5073282;28;20202;-84
2021/08/14 01:31:10;;;;;;;24.17;5.57;;;14.90;89.10;;;;;;5073063;28;20180;-84
2021/08/14 01:33:38;;;;;;;26.23;5.07;;;15.00;89.00;;;;;;5055086;28;20191;-84
2021/08/14 01:36:06;;;;;;;13.57;5.00;;;15.00;88.90;;;;;;5055282;28;20550;-85
2021/08/14 01:38:32;;;;;;;19.90;6.93;;;15.10;88.90;;;;;;5073401;28;20708;-84
2021/08/14 01:40:57;;;;;;;18.20;5.30;;;15.00;88.90;;;;;;5073213;28;20194;-84
2021/08/14 01:43:23;;;;;;;21.27;6.43;;;14.90;89.30;;;;;;5055103;28;20195;-84
2021/08/14 01:45:50;;;;;;;25.83;6.77;;;14.80;89.50;;;;;;5073070;28;20175;-84
2021/08/14 01:48:17;;;;;;;30.17;5.80;;;14.70;89.80;;;;;;5055092;28;20199;-84
2021/08/14 01:50:43;;;;;;;19.50;6.00;;;14.70;90.00;;;;;;5055080;28;20207;-84
2021/08/14 01:53:09;;;;;;;16.83;5.77;;;14.70;90.00;;;;;;5054980;28;20206;-84
2021/08/14 01:55:35;;;;;;;19.83;6.00;;;14.80;90.10;;;;;;5054843;28;20202;-84
2021/08/14 01:58:03;;;;;;;24.40;7.20;;;14.70;90.30;;;;;;5072896;28;20164;-84
2021/08/14 02:00:29;;;;;;;27.90;6.87;;;14.80;90.30;;;;;;5055068;28;20693;-84
2021/08/14 02:02:56;;;;;;;24.47;6.93;;;14.80;90.30;;;;;;5054819;28;20202;-84
2021/08/14 02:05:22;;;;;;;23.67;7.07;;;14.80;90.40;;;;;;5054881;28;20670;-84
2021/08/14 02:07:48;;;;;;;20.83;6.10;;;14.80;90.20;;;;;;5054954;28;20176;-84
2021/08/14 02:10:13;;;;;;;18.87;5.63;;;14.80;90.10;;;;;;5072852;28;20662;-84
2021/08/14 02:12:39;;;;;;;22.20;5.93;;;14.80;90.10;;;;;;5072719;28;20232;-84
2021/08/14 02:15:06;;;;;;;23.07;6.07;;;14.80;90.10;;;;;;5054779;28;20221;-84
2021/08/14 02:17:32;;;;;;;19.13;6.53;;;14.80;90.10;;;;;;5076349;28;20181;-84
2021/08/14 02:19:57;;;;;;;13.33;5.70;;;14.90;89.90;;;;;;5076631;28;20314;-84
2021/08/14 02:22:23;;;;;;;18.67;6.33;;;14.90;89.50;;;;;;5058471;28;20203;-84
2021/08/14 02:24:49;;;;;;;28.03;6.70;;;15.00;89.40;;;;;;5058628;28;20182;-84
2021/08/14 02:27:14;;;;;;;24.13;6.83;;;15.00;89.30;;;;;;5058575;28;20176;-84
2021/08/14 02:29:40;;;;;;;18.63;6.50;;;14.90;89.30;;;;;;5076360;28;20250;-84
2021/08/14 02:32:06;;;;;;;15.93;5.77;;;14.80;89.30;;;;;;5058640;28;20176;-84
2021/08/14 02:34:32;;;;;;;14.37;5.50;;;14.80;89.60;;;;;;5058717;28;20195;-84
2021/08/14 02:36:57;;;;;;;16.43;5.00;;;14.80;89.70;;;;;;5058379;28;20178;-84
2021/08/14 02:39:23;;;;;;;19.20;6.10;;;14.80;89.50;;;;;;5076286;28;20171;-85
2021/08/14 02:41:49;;;;;;;16.07;5.87;;;14.80;89.50;;;;;;5058266;28;20175;-83
2021/08/14 02:44:14;;;;;;;17.87;5.47;;;14.80;89.40;;;;;;5076458;28;20171;-84
2021/08/14 02:46:40;;;;;;;23.93;5.77;;;14.80;89.40;;;;;;5076107;28;20172;-84
2021/08/14 02:49:05;;;;;;;28.63;6.60;;;14.80;89.40;;;;;;5077024;28;20548;-85
2021/08/14 02:51:31;;;;;;;15.17;5.53;;;14.80;89.60;;;;;;5077476;28;20202;-85
2021/08/14 02:53:57;;;;;;;23.53;5.97;;;14.80;89.60;;;;;;5058226;28;20219;-84
2021/08/14 02:56:22;;;;;;;17.17;5.77;;;14.80;89.50;;;;;;5075997;28;20164;-85
2021/08/14 02:58:48;;;;;;;16.53;5.00;;;14.90;89.30;;;;;;5075889;28;20172;-84
2021/08/14 03:01:13;;;;;;;17.00;5.03;;;15.00;89.10;;;;;;5075867;28;20172;-85
2021/08/14 03:03:39;;;;;;;20.60;5.90;;;15.10;88.90;;;;;;5057891;28;20550;-84
2021/08/14 03:06:27;;;;;;;20.30;5.23;;;15.00;88.60;;;;;;5057871;28;20182;-84
2021/08/14 03:08:54;;;;;;;16.02;5.22;;;15.10;88.60;;;;;;5075723;28;20167;-84
2021/08/14 03:11:20;;;;;;;12.77;5.05;;;15.00;88.50;;;;;;5057759;28;20178;-85
2021/08/14 03:13:45;;;;;;;14.73;5.23;;;15.00;88.50;;;;;;5057568;28;20226;-84
2021/08/14 03:16:11;;;;;;;15.25;5.70;;;15.00;88.60;;;;;;5075927;28;20202;-85
2021/08/14 03:18:37;;;;;;;14.63;5.47;;;15.10;88.60;;;;;;5057657;28;20197;-84
2021/08/14 03:21:02;;;;;;;18.60;5.40;;;14.90;88.90;;;;;;5057789;28;20167;-84
2021/08/14 03:23:28;;;;;;;16.87;5.37;;;14.90;89.10;;;;;;5075221;28;20203;-84
2021/08/14 03:25:54;;;;;;;19.67;5.70;;;14.90;89.30;;;;;;5057527;28;20203;-84
2021/08/14 03:28:19;;;;;;;21.27;6.23;;;14.90;89.30;;;;;;5075529;28;20210;-84
2021/08/14 03:30:45;;;;;;;19.93;6.13;;;14.90;89.40;;;;;;5075604;28;20612;-85
2021/08/14 03:33:10;;;;;;;16.33;6.07;;;14.90;89.60;;;;;;5057373;28;20256;-84
2021/08/14 03:35:36;;;;;;;23.43;6.93;;;14.90;89.90;;;;;;5057247;28;20210;-84
2021/08/14 03:38:02;;;;;;;22.00;6.57;;;14.90;89.90;;;;;;5057320;28;20187;-84
2021/08/14 03:40:27;;;;;;;21.50;5.50;;;15.00;89.80;;;;;;5075087;28;20171;-84
2021/08/14 03:42:53;;;;;;;20.20;6.17;;;15.00;89.60;;;;;;5057034;28;20728;-84
2021/08/14 03:45:19;;;;;;;14.47;5.00;;;15.10;89.30;;;;;;5057112;28;20635;-85
2021/08/14 03:47:45;;;;;;;21.90;6.50;;;15.10;89.30;;;;;;5074926;28;20176;-84
2021/08/14 03:50:11;;;;;;;20.17;5.50;;;15.10;89.30;;;;;;5074971;28;20184;-85
2021/08/14 03:52:37;;;;;;;20.87;6.47;;;15.10;89.30;;;;;;5056900;28;20623;-84
2021/08/14 03:55:05;;;;;;;17.13;6.47;;;15.10;89.30;;;;;;5056803;28;20626;-84
2021/08/14 03:57:31;;;;;;;22.00;6.27;;;15.20;89.30;;;;;;5056867;28;20266;-84
2021/08/14 03:59:56;;;;;;;14.07;6.17;;;15.20;89.40;;;;;;5074712;28;20258;-84
2021/08/14 04:02:22;;;;;;;16.37;5.63;;;15.10;89.60;;;;;;5074702;28;20213;-84
2021/08/14 04:04:48;;;;;;;30.57;6.67;;;15.10;89.60;;;;;;5074618;28;20673;-84
2021/08/14 04:07:13;;;;;;;22.87;6.33;;;15.10;89.60;;;;;;5057232;28;20300;-84
2021/08/14 04:09:39;;;;;;;20.00;6.40;;;15.10;89.70;;;;;;5074513;28;20172;-84
2021/08/14 04:12:06;;;;;;;20.67;6.40;;;15.20;89.70;;;;;;5056585;28;20175;-84
2021/08/14 04:14:32;;;;;;;16.60;6.63;;;15.20;89.50;;;;;;5074335;28;20195;-85
2021/08/14 04:16:57;;;;;;;20.20;6.43;;;15.10;89.60;;;;;;5057174;28;20180;-85
2021/08/14 04:19:23;;;;;;;23.13;7.13;;;15.20;89.60;;;;;;5074359;28;20661;-84
2021/08/14 04:21:49;;;;;;;19.17;6.47;;;15.20;89.80;;;;;;5056393;28;20180;-85
2021/08/14 04:24:14;;;;;;;19.27;6.40;;;15.10;89.90;;;;;;5056407;28;20199;-83
2021/08/14 04:26:40;;;;;;;17.53;6.17;;;15.10;90.00;;;;;;5056240;28;20177;-84
2021/08/14 04:29:06;;;;;;;27.63;6.30;;;15.10;90.00;;;;;;5056331;28;20179;-84
2021/08/14 04:31:31;;;;;;;26.97;7.67;;;15.20;89.90;;;;;;5056276;28;20176;-85
2021/08/14 04:33:57;;;;;;;22.53;6.17;;;15.20;89.70;;;;;;5074079;28;20199;-84
2021/08/14 04:36:22;;;;;;;17.93;6.77;;;15.20;89.70;;;;;;5073990;28;20582;-84
2021/08/14 04:38:49;;;;;;;16.67;6.80;;;15.20;89.70;;;;;;5055555;28;20228;-84
2021/08/14 04:41:15;;;;;;;20.77;6.80;;;15.20;89.80;;;;;;5056118;28;20197;-84
2021/08/14 04:43:40;;;;;;;23.10;6.93;;;15.20;89.90;;;;;;5073821;28;20388;-84
2021/08/14 04:46:06;;;;;;;21.50;7.37;;;15.20;89.80;;;;;;5074027;28;20182;-85
2021/08/14 04:48:32;;;;;;;25.60;6.63;;;15.30;89.70;;;;;;5056216;28;20228;-85
2021/08/14 04:50:57;;;;;;;21.47;6.93;;;15.20;89.80;;;;;;5055989;28;20266;-85
2021/08/14 04:53:23;;;;;;;24.87;7.03;;;15.30;89.70;;;;;;5055895;28;20568;-85
2021/08/14 04:55:49;;;;;;;19.17;7.57;;;15.30;89.60;;;;;;5055938;28;20210;-85
2021/08/14 04:58:14;;;;;;;27.73;7.70;;;15.30;89.80;;;;;;5055799;28;20194;-85
2021/08/14 05:00:40;;;;;;;21.07;8.07;;;15.30;89.80;;;;;;5073715;28;20728;-85
2021/08/14 05:03:06;;;;;;;22.47;7.63;;;15.30;89.80;;;;;;5055740;28;20566;-85
2021/08/14 05:05:31;;;;;;;22.17;7.57;;;15.40;89.80;;;;;;5055731;28;20561;-85
2021/08/14 05:07:57;;;;;;;28.93;8.50;;;15.50;89.90;;;;;;5073609;28;20183;-85
2021/08/14 05:10:23;;;;;;;19.43;8.00;;;15.40;89.90;;;;;;5073585;28;20199;-85
2021/08/14 05:12:48;;;;;;;20.07;7.57;;;15.50;89.90;;;;;;5073536;28;20199;-85
2021/08/14 05:15:14;;;;;;;26.13;8.47;;;15.50;89.90;;;;;;5056429;28;20540;-85
2021/08/14 05:17:40;;;;;;;20.30;7.10;;;15.50;89.60;;;;;;5073551;28;20175;-85
2021/08/14 05:20:06;;;;;;;19.63;7.60;;;15.50;89.60;;;;;;5055653;28;20175;-85
2021/08/14 05:22:32;;;;;;;21.10;8.20;;;15.60;89.40;;;;;;5073220;28;20207;-85
2021/08/14 05:24:58;;;;;;;30.27;7.83;;;15.60;89.40;;;;;;5073375;28;20550;-85
2021/08/14 05:27:23;;;;;;;19.75;7.05;;;15.60;89.20;;;;;;5055482;28;20179;-85
2021/08/14 05:29:49;;;;;;;35.35;8.35;;;15.70;89.50;;;;;;5055522;28;20182;-86
2021/08/14 05:32:15;;;;;;;25.23;7.67;;;15.70;89.40;;;;;;5055217;28;20207;-85
2021/08/14 05:34:40;;;;;;;22.17;8.05;;;15.70;89.20;;;;;;5055412;28;20674;-85
2021/08/14 05:37:06;;;;;;;20.40;8.15;;;15.70;89.20;;;;;;5055525;28;20175;-85
2021/08/14 05:39:32;;;;;;;26.00;8.25;;;15.80;89.10;;;;;;5055408;28;20536;-85
2021/08/14 05:41:57;;;;;;;21.95;7.53;;;15.80;89.20;;;;;;5055265;28;20175;-84
2021/08/14 05:44:23;;;;;;;25.05;7.20;;;15.80;89.10;;;;;;5055278;28;20210;-85
2021/08/14 05:46:49;;;;;;;30.75;7.13;;;15.90;88.90;;;;;;5073348;28;20186;-85
2021/08/14 05:49:15;;;;;;;19.48;7.25;;;15.90;88.80;;;;;;5055252;28;20183;-85
2021/08/14 05:51:41;;;;;;;25.70;7.38;;;16.00;88.80;;;;;;5075179;28;20189;-85
2021/08/14 05:54:07;;;;;;;23.07;7.53;;;16.00;88.60;;;;;;5059226;28;20206;-85
2021/08/14 05:56:33;;;;;;;21.63;7.93;;;16.00;88.60;;;;;;5059293;28;20183;-85
2021/08/14 05:58:59;;;;;;;18.02;6.72;;;16.10;88.70;;;;;;5059217;28;20179;-85
2021/08/14 06:01:25;;;;;;;22.52;6.90;;;16.10;88.30;;;;;;5077165;28;20175;-85
2021/08/14 06:03:50;;;;;;;23.42;6.30;;;16.20;88.70;;;;;;5059140;28;20199;-85
2021/08/14 06:06:16;;;;;;;17.35;5.75;;;16.20;88.30;;;;;;5076987;28;20171;-85
2021/08/14 06:08:41;;;;;;;23.58;7.30;;;16.20;87.90;;;;;;5058980;28;20167;-85
2021/08/14 06:11:07;;;;;;;21.95;6.07;;;16.30;87.80;;;;;;5076925;28;20293;-84
2021/08/14 06:13:33;;;;;;;15.93;5.05;;;16.30;87.20;;;;;;5058933;28;20727;-85
2021/08/14 06:15:58;;;;;;;25.08;6.35;;;16.40;87.00;;;;;;5076906;28;20221;-85
2021/08/14 06:18:24;;;;;;;24.17;6.35;;;16.40;86.50;;;;;;5058912;28;20179;-85
2021/08/14 06:20:50;;;;;;;18.88;5.32;;;16.50;86.90;;;;;;5076921;28;20174;-85
2021/08/14 06:23:15;;;;;;;15.85;5.32;;;16.50;86.40;;;;;;5076701;28;20274;-84
2021/08/14 06:25:41;;;;;;;24.15;6.32;;;16.60;86.30;;;;;;5076725;28;20191;-85
2021/08/14 06:28:07;;;;;;;25.83;6.10;;;16.60;86.20;;;;;;5076942;28;20175;-85
2021/08/14 06:30:32;;;;;;;21.17;6.47;;;16.60;85.80;;;;;;5058695;28;20175;-85
2021/08/14 06:32:58;;;;;;;15.40;4.63;;;16.70;85.50;;;;;;5076553;28;20191;-85
2021/08/14 06:35:24;;;;;;;14.43;4.85;;;16.70;85.70;;;;;;5058503;28;20667;-85
2021/08/14 06:37:49;;;;;;;18.13;5.43;;;16.80;84.80;;;;;;5058454;28;20217;-85
2021/08/14 06:40:15;;;;;;;18.98;5.28;;;16.80;85.10;;;;;;5076551;28;20221;-85
2021/08/14 06:42:41;;;;;;;17.80;5.57;;;16.80;84.90;;;;;;5058433;28;20550;-85
2021/08/14 06:45:08;;;;;;;19.17;5.32;;;16.90;84.30;;;;;;5076269;28;20258;-86
2021/08/14 06:47:34;;;;;;;16.58;5.60;;;17.00;84.50;;;;;;5076266;28;20167;-85
2021/08/14 06:50:00;;;;;;;16.00;5.53;;;17.10;83.90;;;;;;5076891;28;20175;-85
2021/08/14 06:52:25;;;;;;;17.02;5.15;;;17.20;83.60;;;;;;5058251;28;20204;-85
2021/08/14 06:54:51;;;;;;;14.70;5.55;;;17.20;83.20;;;;;;5058630;28;20349;-86
2021/08/14 06:57:17;;;;;;;15.57;5.93;;;17.20;83.20;;;;;;5059918;28;20203;-86
2021/08/14 06:59:43;;;;;;;17.85;4.78;;;17.30;82.60;;;;;;5058303;28;20205;-85
2021/08/14 07:02:09;;;;;;;17.52;4.55;;;17.30;82.60;;;;;;5075624;28;20187;-86
2021/08/14 07:04:37;;;;;;;13.35;4.20;;;17.40;82.30;;;;;;5077306;28;20195;-85
2021/08/14 07:07:03;;;;;;;21.25;6.25;;;17.50;82.20;;;;;;5043465;28;20246;-85
2021/08/14 07:09:28;;;;;;;21.60;5.15;;;17.60;82.20;;;;;;5059164;28;20203;-86
2021/08/14 07:11:54;;;;;;;14.40;4.43;;;17.60;81.70;;;;;;5058088;28;20203;-86
2021/08/14 07:14:20;;;;;;;15.40;4.88;;;17.60;81.90;;;;;;5076551;28;20195;-85
2021/08/14 07:16:45;;;;;;;19.77;6.50;;;17.60;81.80;;;;;;5058053;28;20202;-85
2021/08/14 07:19:11;;;;;;;14.77;5.50;;;17.60;81.70;;;;;;5058862;28;20225;-86
2021/08/14 07:21:36;;;;;;;14.98;5.38;;;17.70;81.60;;;;;;5076928;28;20194;-86
2021/08/14 07:24:02;;;;;;;13.90;5.13;;;17.80;81.40;;;;;;5058041;28;20242;-85
2021/08/14 07:26:28;;;;;;;19.17;5.55;;;17.90;81.20;;;;;;5058156;28;20180;-85
2021/08/14 07:28:55;;;;;;;16.48;5.10;;;18.10;80.40;;;;;;5075761;28;20171;-85
2021/08/14 07:31:21;;;;;;;21.05;5.32;;;18.20;80.60;;;;;;5057823;28;20175;-86
2021/08/14 07:33:47;;;;;;;17.17;5.53;;;18.30;81.10;;;;;;5057753;28;20191;-86
2021/08/14 07:36:12;;;;;;;12.52;4.75;;;18.40;80.80;;;;;;5057710;28;20244;-85
2021/08/14 07:38:38;;;;;;;12.70;5.28;;;18.40;79.80;;;;;;5075694;28;20532;-86
2021/08/14 07:41:04;;;;;;;10.88;3.92;;;18.40;80.00;;;;;;5075909;28;20175;-85
2021/08/14 07:43:29;;;;;;;19.17;5.65;;;18.60;79.60;;;;;;5057453;28;20188;-86
2021/08/14 07:45:55;;;;;;;25.25;6.30;;;18.60;80.00;;;;;;5075585;28;20296;-85
2021/08/14 07:48:20;;;;;;;22.65;6.28;;;18.70;79.60;;;;;;5075219;28;20180;-85
2021/08/14 07:50:46;;;;;;;21.33;6.13;;;18.70;79.80;;;;;;5057254;28;20635;-85
2021/08/14 07:53:12;;;;;;;16.50;5.72;;;18.70;79.10;;;;;;5057063;28;20225;-86
2021/08/14 07:55:37;;;;;;;19.60;5.22;;;18.80;79.40;;;;;;5074822;28;20198;-85
2021/08/14 07:58:13;;;;;;;19.75;5.88;;;18.80;80.10;;;;;;5074948;28;20175;-86
2021/08/14 08:00:39;;;;;;;18.80;5.63;;;19.10;79.20;;;;;;5057123;28;20171;-85
2021/08/14 08:03:07;;;;;;;17.05;5.70;;;19.20;78.60;;;;;;5075862;28;20188;-85
2021/08/14 08:05:32;;;;;;;23.40;6.40;;;19.40;78.30;;;;;;5075376;28;20167;-86
2021/08/14 08:08:01;;;;;;;14.25;4.72;;;19.40;78.40;;;;;;5056782;28;20530;-85
2021/08/14 08:10:27;;;;;;;23.80;6.40;;;19.50;78.00;;;;;;5057062;28;20203;-86
2021/08/14 08:12:53;;;;;;;13.15;5.22;;;19.40;77.90;;;;;;5056992;28;20206;-86
2021/08/14 08:15:18;;;;;;;21.50;6.13;;;19.30;78.00;;;;;;5074272;28;20179;-85
2021/08/14 08:17:44;;;;;;;20.05;6.70;;;19.40;78.00;;;;;;5056673;28;20177;-86
2021/08/14 08:20:12;;;;;;;16.58;5.15;;;19.50;77.20;;;;;;5057137;28;20175;-86
2021/08/14 08:22:37;;;;;;;19.98;5.25;;;19.50;77.10;;;;;;5056474;28;20636;-85
2021/08/14 08:25:04;;;;;;;17.75;5.25;;;19.50;76.10;;;;;;5056725;28;20202;-85
2021/08/14 08:27:30;;;;;;;19.98;5.88;;;19.70;77.00;;;;;;5074573;28;20174;-85
2021/08/14 08:29:56;;;;;;;24.85;5.88;;;19.80;76.50;;;;;;5056525;28;20171;-85
2021/08/14 08:32:21;;;;;;;14.85;4.68;;;19.80;77.20;;;;;;5056265;28;20290;-85
2021/08/14 08:34:47;;;;;;;17.05;5.28;;;20.10;77.40;;;;;;5056176;28;20206;-86
2021/08/14 08:37:12;;;;;;;17.17;4.55;;;20.10;76.40;;;;;;5074273;28;20556;-86
2021/08/14 08:39:38;;;;;;;17.30;6.00;;;20.00;75.90;;;;;;5056220;28;20172;-86
2021/08/14 08:42:07;;;;;;;14.48;4.72;;;20.10;76.40;;;;;;5074335;28;20534;-86
2021/08/14 08:44:33;;;;;;;16.90;4.78;;;20.20;76.20;;;;;;5056003;28;20182;-86
2021/08/14 08:46:59;;;;;;;17.98;5.20;;;20.30;74.80;;;;;;5056920;28;20172;-86
2021/08/14 08:49:26;;;;;;;15.85;4.93;;;20.20;75.40;;;;;;5073976;28;20175;-85
2021/08/14 08:51:53;;;;;;;18.30;4.63;;;20.20;74.80;;;;;;5055979;28;20179;-85
2021/08/14 08:54:19;;;;;;;14.35;4.97;;;20.20;74.30;;;;;;5074082;28;20195;-85
2021/08/14 08:56:46;;;;;;;18.73;5.18;;;20.20;75.40;;;;;;5056001;28;20546;-85
2021/08/14 08:59:12;;;;;;;19.73;5.47;;;20.30;74.50;;;;;;5073843;28;20224;-85
2021/08/14 09:01:39;;;;;;;17.38;4.95;;;20.30;74.30;;;;;;5055694;28;20175;-85
2021/08/14 09:04:25;;;;;;;19.25;5.53;;;20.50;74.40;;;;;;5055754;28;20191;-85
2021/08/14 09:06:51;;;;;;;17.42;4.88;;;20.60;74.60;;;;;;5055732;28;20171;-85
2021/08/14 09:09:23;;;;;;;15.57;4.50;;;20.70;73.50;;;;;;5073582;28;20167;-86
2021/08/14 09:11:50;;;;;;;17.08;5.63;;;20.60;73.90;;;;;;5056557;28;20173;-85
2021/08/14 09:14:16;;;;;;;17.33;5.00;;;20.70;74.30;;;;;;5055597;28;20203;-85
2021/08/14 09:16:43;;;;;;;13.98;5.65;;;20.80;75.00;;;;;;5073526;28;20171;-85
2021/08/14 09:19:20;;;;;;;20.08;5.45;;;21.00;74.30;;;;;;5055666;28;20171;-85
2021/08/14 09:21:46;;;;;;;14.20;4.93;;;20.90;73.40;;;;;;5073645;28;20163;-85
2021/08/14 09:24:33;;;;;;;19.52;5.20;;;20.80;72.90;;;;;;5055250;28;20219;-85
2021/08/14 09:27:01;;;;;;;21.25;5.50;;;20.80;73.30;;;;;;5073417;28;20148;-85
2021/08/14 09:29:35;;;;;;;14.90;5.15;;;20.80;73.50;;;;;;5055335;28;20182;-84
2021/08/14 09:32:08;;;;;;;18.15;5.30;;;20.80;73.90;;;;;;5073126;28;20167;-84
2021/08/14 09:34:34;;;;;;;15.00;4.60;;;20.90;74.10;;;;;;5055572;28;20203;-85
2021/08/14 09:37:05;;;;;;;19.20;5.07;;;20.90;74.10;;;;;;5055170;28;20263;-85
2021/08/14 09:39:33;;;;;;;15.70;5.25;;;20.80;73.40;;;;;;5055252;28;20197;-85
2021/08/14 09:42:07;;;;;;;14.30;4.68;;;20.80;73.40;;;;;;5073094;28;20542;-85
2021/08/14 09:44:35;;;;;;;16.38;4.85;;;20.70;74.00;;;;;;5073095;28;20175;-85
2021/08/14 09:47:01;;;;;;;15.68;4.72;;;20.80;73.50;;;;;;5055242;28;20187;-85
2021/08/14 09:49:46;;;;;;;21.63;6.43;;;20.80;72.90;;;;;;5055215;28;20181;-85
2021/08/14 09:52:23;;;;;;;14.45;5.90;;;20.80;73.40;;;;;;5072838;28;20667;-85
2021/08/14 09:54:49;;;;;;;13.85;5.22;;;20.80;72.70;;;;;;5055094;28;20210;-85
2021/08/14 09:57:20;;;;;;;19.00;5.00;;;20.70;72.80;;;;;;5073264;28;20233;-85
2021/08/14 09:59:47;;;;;;;18.95;5.05;;;20.80;73.30;;;;;;5072995;28;20170;-85
2021/08/14 10:02:21;;;;;;;23.10;5.22;;;21.00;73.00;;;;;;5054958;28;20187;-85
2021/08/14 10:04:47;;;;;;;14.80;4.88;;;21.00;72.80;;;;;;5073284;28;20167;-85
2021/08/14 10:07:17;;;;;;;14.55;4.97;;;21.10;71.00;;;;;;5054940;28;20206;-86
2021/08/14 10:09:43;;;;;;;14.45;5.35;;;20.90;70.90;;;;;;5054882;28;20175;-85
2021/08/14 10:12:11;;;;;;;17.65;5.07;;;20.90;71.80;;;;;;5073078;28;20176;-85
2021/08/14 10:14:41;;;;;;;16.45;5.10;;;20.90;72.10;;;;;;5072757;28;20248;-85
2021/08/14 10:17:08;;;;;;;14.23;4.90;;;20.80;72.10;;;;;;5054917;28;20174;-85
2021/08/14 10:19:34;;;;;;;17.33;5.13;;;20.90;73.40;;;;;;5054839;28;20547;-85
2021/08/14 10:22:01;;;;;;;15.30;4.50;;;20.80;71.80;;;;;;5072606;28;20680;-85
2021/08/14 10:24:37;;;;;;;16.15;4.40;;;20.80;71.80;;;;;;5054820;28;20184;-85
2021/08/14 10:27:19;;;;;;;13.65;4.47;;;20.80;71.60;;;;;;5054790;28;20171;-85
2021/08/14 10:29:58;;;;;;;12.27;4.20;;;21.00;72.40;;;;;;5072760;28;20155;-85
2021/08/14 10:32:30;;;;;;;24.65;5.75;;;20.90;72.20;;;;;;5054650;28;20252;-85
2021/08/14 10:35:17;;;;;;;17.35;4.85;;;20.80;72.10;;;;;;5072573;28;20678;-85
2021/08/14 10:37:50;;;;;;;19.33;5.07;;;20.80;72.40;;;;;;5056660;28;20179;-85
2021/08/14 10:40:19;;;;;;;15.82;4.93;;;20.70;72.10;;;;;;5058704;28;20175;-85
2021/08/14 10:42:53;;;;;;;29.65;5.78;;;20.80;73.00;;;;;;5058576;28;20663;-85
2021/08/14 10:45:36;;;;;;;12.20;4.40;;;20.80;72.40;;;;;;5076458;28;20171;-85
2021/08/14 10:48:04;;;;;;;16.58;4.90;;;20.70;71.80;;;;;;5058454;28;20202;-85
2021/08/14 10:50:33;;;;;;;10.25;4.18;;;20.70;71.90;;;;;;5058201;28;20681;-85
2021/08/14 10:53:10;;;;;;;18.48;5.15;;;20.80;72.00;;;;;;5076018;28;20191;-84
2021/08/14 10:55:37;;;;;;;17.25;5.05;;;20.90;71.90;;;;;;5058132;28;20256;-84
2021/08/14 10:58:24;;;;;;;16.20;5.20;;;20.90;71.40;;;;;;5058088;28;20175;-85
2021/08/14 11:01:16;;;;;;;14.90;4.63;;;20.90;71.10;;;;;;5058104;28;20549;-85
2021/08/14 11:03:41;;;;;;;18.73;4.95;;;21.00;72.40;;;;;;5057743;28;20241;-84
2021/08/14 11:06:27;;;;;;;18.50;4.60;;;21.10;71.80;;;;;;5075811;28;20654;-84
2021/08/14 11:09:18;;;;;;;19.27;5.82;;;21.10;72.00;;;;;;5057891;28;20172;-85
2021/08/14 11:11:59;;;;;;;12.68;4.70;;;21.20;71.60;;;;;;5058674;28;20270;-85
2021/08/14 11:14:45;;;;;;;17.92;5.20;;;21.50;72.40;;;;;;5075611;28;20562;-85
2021/08/14 11:17:13;;;;;;;23.20;5.53;;;21.60;72.60;;;;;;5057620;28;20186;-85
2021/08/14 11:19:47;;;;;;;15.32;4.28;;;21.80;71.50;;;;;;5057678;28;20578;-85
2021/08/14 11:22:27;;;;;;;22.58;5.63;;;21.70;71.60;;;;;;5057489;28;20214;-85
2021/08/14 11:24:54;;;;;;;16.50;4.90;;;21.70;70.30;;;;;;5075616;28;20147;-85
2021/08/14 11:27:52;;;;;;;18.10;4.95;;;21.80;69.70;;;;;;5057562;28;20183;-85
2021/08/14 11:30:22;;;;;;;16.17;4.88;;;21.90;71.50;;;;;;5057541;28;20167;-85
2021/08/14 11:32:48;;;;;;;19.65;5.47;;;21.80;70.80;;;;;;5057366;28;20199;-85
2021/08/14 11:35:20;;;;;;;21.90;4.95;;;21.90;70.20;;;;;;5057269;28;20203;-85
2021/08/14 11:37:51;;;;;;;14.80;5.45;;;21.90;70.10;;;;;;5057446;28;20537;-85
2021/08/14 11:40:21;;;;;;;15.20;5.53;;;22.00;70.90;;;;;;5057360;28;20172;-85
2021/08/14 11:42:58;;;;;;;18.33;5.20;;;21.90;70.10;;;;;;5057157;28;20195;-85
2021/08/14 11:45:25;;;;;;;18.45;5.00;;;21.60;70.20;;;;;;5075180;28;20684;-85
2021/08/14 11:48:09;;;;;;;16.35;5.25;;;21.50;70.00;;;;;;5057033;28;20595;-85
2021/08/14 11:50:37;;;;;;;14.70;4.65;;;21.40;70.60;;;;;;5075342;28;20166;-84
2021/08/14 11:53:08;;;;;;;9.48;3.90;;;21.50;69.30;;;;;;5056876;28;20195;-85
2021/08/14 11:55:34;;;;;;;10.45;3.95;;;21.50;68.60;;;;;;5074719;28;20286;-85
2021/08/14 11:58:00;;;;;;;11.85;4.43;;;21.50;68.40;;;;;;5056935;28;20259;-85
2021/08/14 12:00:34;;;;;;;11.02;3.33;;;21.50;68.10;;;;;;5074779;28;20171;-85
2021/08/14 12:03:27;;;;;;;12.65;4.28;;;21.50;66.30;;;;;;5056838;28;20249;-85
2021/08/14 12:06:05;;;;;;;12.02;4.18;;;21.60;66.60;;;;;;5072951;28;20592;-85
2021/08/14 12:08:33;;;;;;;14.38;3.88;;;21.70;67.70;;;;;;5074918;28;20250;-85
2021/08/14 12:11:03;;;;;;;12.57;4.07;;;21.70;67.70;;;;;;5056699;28;20203;-85
2021/08/14 12:13:29;;;;;;;12.57;4.35;;;21.70;67.50;;;;;;5056489;28;20196;-85
2021/08/14 12:16:16;;;;;;;12.45;4.43;;;21.70;66.10;;;;;;5074438;28;20195;-85
2021/08/14 12:18:44;;;;;;;14.50;3.85;;;21.70;66.50;;;;;;5056509;28;20218;-84
2021/08/14 12:21:12;;;;;;;14.65;4.55;;;21.70;67.30;;;;;;5056446;28;20262;-85
2021/08/14 12:23:39;;;;;;;15.13;4.47;;;21.70;67.50;;;;;;5056644;28;20213;-84
2021/08/14 12:26:26;;;;;;;9.73;3.90;;;21.70;66.80;;;;;;5074244;28;20172;-85
2021/08/14 12:29:12;;;;;;;10.70;4.18;;;21.70;67.30;;;;;;5056449;28;20191;-85
2021/08/14 12:31:45;;;;;;;8.23;3.58;;;21.70;66.80;;;;;;5056309;28;20181;-85
2021/08/14 12:34:24;;;;;;;11.55;4.38;;;21.60;65.00;;;;;;5074069;28;20205;-85
2021/08/14 12:37:07;;;;;;;15.20;3.63;;;21.70;67.30;;;;;;5056218;28;20198;-85
2021/08/14 12:39:44;;;;;;;12.18;3.70;;;21.70;66.50;;;;;;5056110;28;20191;-85
2021/08/14 12:42:22;;;;;;;11.82;4.10;;;21.60;67.10;;;;;;5056030;28;20205;-84